Time,TemperatureF,DewpointF,PressureIn,WindDirection,WindDirectionDegrees,WindSpeedMPH,WindSpeedGustMPH,Humidity,HourlyPrecipIn,Conditions,Clouds,dailyrainin,SoftwareType,DateUTC
2013-06-08 08:34:00,55.9,55.7,29.74,West,270,2.2,-999.0,99,-99.99,,,0.00,Acu-Link.com,2013-06-08 12:34:00,
2013-06-08 08:49:00,56.1,55.8,29.75,West,270,4.3,-999.0,99,-99.99,,,0.00,Acu-Link.com,2013-06-08 12:49:00,
2013-06-08 09:04:00,56.5,56.2,29.76,NW,315,1.6,-999.0,99,-99.99,,,0.00,Acu-Link.com,2013-06-08 13:04:00,
2013-06-08 09:19:00,57.0,56.7,29.76,West,270,4.7,-999.0,99,-99.99,,,0.00,Acu-Link.com,2013-06-08 13:19:00,
2013-06-08 09:34:00,58.1,57.8,29.76,WNW,292,2.7,-999.0,99,-99.99,,,0.00,Acu-Link.com,2013-06-08 13:34:00,
2013-06-08 09:49:00,58.1,57.3,29.77,WSW,247,2.2,-999.0,97,-99.99,,,0.00,Acu-Link.com,2013-06-08 13:49:00,
2013-06-08 10:05:00,57.7,56.6,29.77,West,270,1.6,-999.0,96,-99.99,,,0.00,Acu-Link.com,2013-06-08 14:05:00,
2013-06-08 10:20:00,57.6,56.4,29.77,NE,45,0.0,-999.0,96,-99.99,,,0.00,Acu-Link.com,2013-06-08 14:20:00,
2013-06-08 10:35:00,57.9,56.8,29.77,West,270,3.1,-999.0,96,-99.99,,,0.00,Acu-Link.com,2013-06-08 14:35:00,
2013-06-08 10:50:00,57.6,56.4,29.77,West,270,3.8,-999.0,96,-99.99,,,0.00,Acu-Link.com,2013-06-08 14:50:00,
2013-06-08 11:06:00,57.2,55.8,29.77,West,270,3.1,-999.0,95,-99.99,,,0.00,Acu-Link.com,2013-06-08 15:06:00,
2013-06-08 11:36:00,57.0,55.9,29.78,WSW,247,8.3,-999.0,96,-99.99,,,0.00,Acu-Link.com,2013-06-08 15:36:00,
2013-06-08 11:51:00,57.4,56.2,29.79,WSW,247,1.1,-999.0,96,-99.99,,,0.00,Acu-Link.com,2013-06-08 15:51:00,
2013-06-08 12:06:00,58.1,56.7,29.79,West,270,3.8,-999.0,95,-99.99,,,0.00,Acu-Link.com,2013-06-08 16:06:00,
2013-06-08 12:22:00,59.4,57.0,29.79,WNW,292,4.7,-999.0,92,-99.99,,,0.00,Acu-Link.com,2013-06-08 16:22:00,
2013-06-08 12:37:00,60.1,57.1,29.80,West,270,2.2,-999.0,90,-99.99,,,0.00,Acu-Link.com,2013-06-08 16:37:00,
2013-06-08 12:52:00,61.2,58.5,29.80,West,270,0.0,-999.0,91,-99.99,,,0.00,Acu-Link.com,2013-06-08 16:52:00,
2013-06-08 13:07:00,61.5,57.3,29.80,West,270,4.7,-999.0,86,-99.99,,,0.00,Acu-Link.com,2013-06-08 17:07:00,
2013-06-08 13:23:00,59.5,56.9,29.80,WNW,292,2.7,-999.0,91,-99.99,,,0.00,Acu-Link.com,2013-06-08 17:23:00,
2013-06-08 13:38:00,59.9,56.3,29.80,NW,315,1.1,-999.0,88,-99.99,,,0.00,Acu-Link.com,2013-06-08 17:38:00,
2013-06-08 13:53:00,60.4,56.9,29.80,SSE,157,0.0,-999.0,88,-99.99,,,0.00,Acu-Link.com,2013-06-08 17:53:00,
2013-06-08 14:08:00,60.3,56.7,29.81,WNW,292,1.6,-999.0,88,-99.99,,,0.00,Acu-Link.com,2013-06-08 18:08:00,
2013-06-08 14:23:00,60.6,56.4,29.81,West,270,2.7,-999.0,86,-99.99,,,0.00,Acu-Link.com,2013-06-08 18:23:00,
2013-06-08 14:39:00,60.1,56.2,29.82,NW,315,0.0,-999.0,87,-99.99,,,0.00,Acu-Link.com,2013-06-08 18:39:00,
2013-06-08 14:54:00,60.3,56.1,29.82,West,270,3.1,-999.0,86,-99.99,,,0.00,Acu-Link.com,2013-06-08 18:54:00,
2013-06-08 15:09:00,61.9,56.7,29.82,West,270,2.2,-999.0,83,-99.99,,,0.00,Acu-Link.com,2013-06-08 19:09:00,
2013-06-08 15:24:00,61.9,56.3,29.82,NNE,22,2.7,-999.0,82,-99.99,,,0.00,Acu-Link.com,2013-06-08 19:24:00,
2013-06-08 15:40:00,61.7,56.1,29.82,WSW,247,3.8,-999.0,82,-99.99,,,0.00,Acu-Link.com,2013-06-08 19:40:00,
2013-06-08 15:55:00,63.1,56.5,29.82,NW,315,1.6,-999.0,79,-99.99,,,0.00,Acu-Link.com,2013-06-08 19:55:00,
2013-06-08 16:10:00,63.5,56.2,29.82,West,270,2.7,-999.0,77,-99.99,,,0.00,Acu-Link.com,2013-06-08 20:10:00,
2013-06-08 16:25:00,63.7,56.0,29.82,WSW,247,0.0,-999.0,76,-99.99,,,0.00,Acu-Link.com,2013-06-08 20:25:00,
2013-06-08 16:40:00,63.9,56.1,29.82,WSW,247,0.0,-999.0,76,-99.99,,,0.00,Acu-Link.com,2013-06-08 20:40:00,
2013-06-08 16:56:00,63.3,56.7,29.83,WNW,292,0.0,-999.0,79,-99.99,,,0.00,Acu-Link.com,2013-06-08 20:56:00,
2013-06-08 17:41:00,63.9,56.9,29.83,East,90,0.0,-999.0,78,-99.99,,,0.00,Acu-Link.com,2013-06-08 21:41:00,
2013-06-08 17:56:00,64.8,56.6,29.82,ESE,112,0.0,-999.0,75,-99.99,,,0.00,Acu-Link.com,2013-06-08 21:56:00,
2013-06-08 18:12:00,64.0,57.0,29.83,NW,315,0.0,-999.0,78,-99.99,,,0.00,Acu-Link.com,2013-06-08 22:12:00,
2013-06-08 18:27:00,64.8,57.0,29.83,SSE,157,0.0,-999.0,76,-99.99,,,0.00,Acu-Link.com,2013-06-08 22:27:00,
2013-06-08 18:42:00,65.3,58.3,29.83,ESE,112,0.0,-999.0,78,-99.99,,,0.00,Acu-Link.com,2013-06-08 22:42:00,
2013-06-08 18:57:00,66.2,58.8,29.83,West,270,2.7,-999.0,77,-99.99,,,0.00,Acu-Link.com,2013-06-08 22:57:00,
2013-06-08 19:12:00,64.8,56.3,29.83,West,270,1.6,-999.0,74,-99.99,,,0.00,Acu-Link.com,2013-06-08 23:12:00,
2013-06-08 19:28:00,64.2,57.2,29.85,West,270,0.0,-999.0,78,-99.99,,,0.00,Acu-Link.com,2013-06-08 23:28:00,
2013-06-08 19:43:00,63.7,56.7,29.85,West,270,1.1,-999.0,78,-99.99,,,0.00,Acu-Link.com,2013-06-08 23:43:00,
2013-06-08 19:58:00,63.3,57.7,29.85,SW,225,0.0,-999.0,82,-99.99,,,0.00,Acu-Link.com,2013-06-08 23:58:00,
2013-06-08 20:13:00,62.1,57.8,29.86,SSW,202,0.0,-999.0,86,-99.99,,,0.00,Acu-Link.com,2013-06-09 00:13:00,
2013-06-08 20:28:00,61.7,57.5,29.86,SSW,202,0.0,-999.0,86,-99.99,,,0.00,Acu-Link.com,2013-06-09 00:28:00,
2013-06-08 20:44:00,60.8,57.2,29.86,South,180,1.1,-999.0,88,-99.99,,,0.00,Acu-Link.com,2013-06-09 00:44:00,
2013-06-08 20:59:00,60.4,57.2,29.86,West,270,0.0,-999.0,89,-99.99,,,0.00,Acu-Link.com,2013-06-09 00:59:00,
2013-06-08 21:14:00,59.9,57.0,29.87,South,180,0.0,-999.0,90,-99.99,,,0.00,Acu-Link.com,2013-06-09 01:14:00,
2013-06-08 21:29:00,59.7,57.1,29.87,South,180,0.0,-999.0,91,-99.99,,,0.00,Acu-Link.com,2013-06-09 01:29:00,
2013-06-08 21:44:00,59.4,57.0,29.88,NNW,337,0.0,-999.0,92,-99.99,,,0.00,Acu-Link.com,2013-06-09 01:44:00,
2013-06-08 22:00:00,59.0,56.7,29.89,South,180,0.0,-999.0,92,-99.99,,,0.00,Acu-Link.com,2013-06-09 02:00:00,
2013-06-08 22:15:00,58.5,56.4,29.90,West,270,0.0,-999.0,93,-99.99,,,0.00,Acu-Link.com,2013-06-09 02:15:00,
2013-06-08 22:30:00,57.9,55.9,29.90,North,0,0.0,-999.0,93,-99.99,,,0.00,Acu-Link.com,2013-06-09 02:30:00,
2013-06-08 22:45:00,57.7,55.1,29.90,West,270,2.2,-999.0,91,-99.99,,,0.00,Acu-Link.com,2013-06-09 02:45:00,
2013-06-08 23:00:00,58.6,54.5,29.90,West,270,2.7,-999.0,86,-99.99,,,0.00,Acu-Link.com,2013-06-09 03:00:00,
2013-06-08 23:16:00,59.0,54.2,29.90,West,270,2.7,-999.0,84,-99.99,,,0.00,Acu-Link.com,2013-06-09 03:16:00,
2013-06-08 23:46:00,58.8,53.3,29.90,SSW,202,0.0,-999.0,82,-99.99,,,0.00,Acu-Link.com,2013-06-09 03:46:00,